sensor_id;sensor_type;location;lat;lon;timestamp;temperature;humidity
24686;DHT22;12804;51.176;4.452;2024-03-07T00:01:05;6.50;99.90
24686;DHT22;12804;51.176;4.452;2024-03-07T00:03:31;6.50;99.90
24686;DHT22;12804;51.176;4.452;2024-03-07T00:05:57;6.40;99.90
24686;DHT22;12804;51.176;4.452;2024-03-07T00:08:22;6.40;99.90
24686;DHT22;12804;51.176;4.452;2024-03-07T00:10:48;6.40;99.90
24686;DHT22;12804;51.176;4.452;2024-03-07T00:13:14;6.40;99.90
24686;DHT22;12804;51.176;4.452;2024-03-07T00:15:40;6.40;99.90
24686;DHT22;12804;51.176;4.452;2024-03-07T00:18:07;6.40;99.90
24686;DHT22;12804;51.176;4.452;2024-03-07T00:20:33;6.30;99.90
24686;DHT22;12804;51.176;4.452;2024-03-07T00:22:58;6.30;99.90
24686;DHT22;12804;51.176;4.452;2024-03-07T00:25:24;6.30;99.90
24686;DHT22;12804;51.176;4.452;2024-03-07T00:27:51;6.30;99.90
24686;DHT22;12804;51.176;4.452;2024-03-07T00:30:19;6.30;99.90
24686;DHT22;12804;51.176;4.452;2024-03-07T00:32:46;6.30;99.90
24686;DHT22;12804;51.176;4.452;2024-03-07T00:35:12;6.30;99.90
24686;DHT22;12804;51.176;4.452;2024-03-07T00:37:39;6.30;99.90
24686;DHT22;12804;51.176;4.452;2024-03-07T00:40:05;6.30;99.90
24686;DHT22;12804;51.176;4.452;2024-03-07T00:42:31;6.20;99.90
24686;DHT22;12804;51.176;4.452;2024-03-07T00:44:57;6.20;99.90
24686;DHT22;12804;51.176;4.452;2024-03-07T00:47:23;6.20;99.90
24686;DHT22;12804;51.176;4.452;2024-03-07T00:49:49;6.20;99.90
24686;DHT22;12804;51.176;4.452;2024-03-07T00:52:15;6.20;99.90
24686;DHT22;12804;51.176;4.452;2024-03-07T00:54:42;6.10;99.90
24686;DHT22;12804;51.176;4.452;2024-03-07T00:57:08;6.20;99.90
24686;DHT22;12804;51.176;4.452;2024-03-07T00:59:34;6.20;99.90
24686;DHT22;12804;51.176;4.452;2024-03-07T01:02:00;6.20;99.90
24686;DHT22;12804;51.176;4.452;2024-03-07T01:04:26;6.20;99.90
24686;DHT22;12804;51.176;4.452;2024-03-07T01:06:57;6.20;99.90
24686;DHT22;12804;51.176;4.452;2024-03-07T01:09:24;6.10;99.90
24686;DHT22;12804;51.176;4.452;2024-03-07T01:11:50;6.10;99.90
24686;DHT22;12804;51.176;4.452;2024-03-07T01:14:16;6.00;99.90
24686;DHT22;12804;51.176;4.452;2024-03-07T01:16:42;5.90;99.90
24686;DHT22;12804;51.176;4.452;2024-03-07T01:19:08;6.00;99.90
24686;DHT22;12804;51.176;4.452;2024-03-07T01:21:34;5.90;99.90
24686;DHT22;12804;51.176;4.452;2024-03-07T01:24:01;5.90;99.90
24686;DHT22;12804;51.176;4.452;2024-03-07T01:26:28;5.90;99.90
24686;DHT22;12804;51.176;4.452;2024-03-07T01:28:55;5.90;99.90
24686;DHT22;12804;51.176;4.452;2024-03-07T01:31:22;5.90;99.90
24686;DHT22;12804;51.176;4.452;2024-03-07T01:33:48;5.80;99.90
24686;DHT22;12804;51.176;4.452;2024-03-07T01:36:14;5.80;99.90
24686;DHT22;12804;51.176;4.452;2024-03-07T01:38:41;5.80;99.90
24686;DHT22;12804;51.176;4.452;2024-03-07T01:41:07;5.80;99.90
24686;DHT22;12804;51.176;4.452;2024-03-07T01:43:32;5.80;99.90
24686;DHT22;12804;51.176;4.452;2024-03-07T01:45:58;5.80;99.90
24686;DHT22;12804;51.176;4.452;2024-03-07T01:48:28;5.80;99.90
24686;DHT22;12804;51.176;4.452;2024-03-07T01:50:55;5.80;99.90
24686;DHT22;12804;51.176;4.452;2024-03-07T01:53:22;5.80;99.90
24686;DHT22;12804;51.176;4.452;2024-03-07T01:55:50;5.80;99.90
24686;DHT22;12804;51.176;4.452;2024-03-07T01:58:18;5.80;99.90
24686;DHT22;12804;51.176;4.452;2024-03-07T02:00:45;5.70;99.90
24686;DHT22;12804;51.176;4.452;2024-03-07T02:03:11;5.70;99.90
24686;DHT22;12804;51.176;4.452;2024-03-07T02:05:40;5.70;99.90
24686;DHT22;12804;51.176;4.452;2024-03-07T02:08:06;5.70;99.90
24686;DHT22;12804;51.176;4.452;2024-03-07T02:10:31;5.70;99.90
24686;DHT22;12804;51.176;4.452;2024-03-07T02:12:57;5.70;99.90
24686;DHT22;12804;51.176;4.452;2024-03-07T02:15:23;5.70;99.90
24686;DHT22;12804;51.176;4.452;2024-03-07T02:17:49;5.60;99.90
24686;DHT22;12804;51.176;4.452;2024-03-07T02:20:15;5.60;99.90
24686;DHT22;12804;51.176;4.452;2024-03-07T02:22:41;5.60;99.90
24686;DHT22;12804;51.176;4.452;2024-03-07T02:25:08;5.60;99.90
24686;DHT22;12804;51.176;4.452;2024-03-07T02:27:37;5.60;99.90
24686;DHT22;12804;51.176;4.452;2024-03-07T02:30:04;5.60;99.90
24686;DHT22;12804;51.176;4.452;2024-03-07T02:32:34;5.60;99.90
24686;DHT22;12804;51.176;4.452;2024-03-07T02:35:00;5.60;99.90
24686;DHT22;12804;51.176;4.452;2024-03-07T02:37:28;5.50;99.90
24686;DHT22;12804;51.176;4.452;2024-03-07T02:39:54;5.50;99.90
24686;DHT22;12804;51.176;4.452;2024-03-07T02:42:20;5.60;99.90
24686;DHT22;12804;51.176;4.452;2024-03-07T02:44:46;5.50;99.90
24686;DHT22;12804;51.176;4.452;2024-03-07T02:47:12;5.60;99.90
24686;DHT22;12804;51.176;4.452;2024-03-07T02:49:38;5.60;99.90
24686;DHT22;12804;51.176;4.452;2024-03-07T02:52:04;5.70;99.90
24686;DHT22;12804;51.176;4.452;2024-03-07T02:54:34;5.70;99.90
24686;DHT22;12804;51.176;4.452;2024-03-07T02:57:00;5.70;99.90
24686;DHT22;12804;51.176;4.452;2024-03-07T02:59:26;5.50;99.90
24686;DHT22;12804;51.176;4.452;2024-03-07T03:01:52;5.50;99.90
24686;DHT22;12804;51.176;4.452;2024-03-07T03:04:18;5.50;99.90
24686;DHT22;12804;51.176;4.452;2024-03-07T03:06:44;5.50;99.90
24686;DHT22;12804;51.176;4.452;2024-03-07T03:09:10;5.40;99.90
24686;DHT22;12804;51.176;4.452;2024-03-07T03:11:44;5.40;99.90
24686;DHT22;12804;51.176;4.452;2024-03-07T03:14:09;5.30;99.90
24686;DHT22;12804;51.176;4.452;2024-03-07T03:16:42;5.40;99.90
24686;DHT22;12804;51.176;4.452;2024-03-07T03:19:11;5.40;99.90
24686;DHT22;12804;51.176;4.452;2024-03-07T03:21:37;5.40;99.90
24686;DHT22;12804;51.176;4.452;2024-03-07T03:24:04;5.40;99.90
24686;DHT22;12804;51.176;4.452;2024-03-07T03:26:30;5.40;99.90
24686;DHT22;12804;51.176;4.452;2024-03-07T03:28:57;5.30;99.90
24686;DHT22;12804;51.176;4.452;2024-03-07T03:31:23;5.30;99.90
24686;DHT22;12804;51.176;4.452;2024-03-07T03:33:49;5.30;99.90
24686;DHT22;12804;51.176;4.452;2024-03-07T03:36:16;5.30;99.90
24686;DHT22;12804;51.176;4.452;2024-03-07T03:38:42;5.30;99.90
24686;DHT22;12804;51.176;4.452;2024-03-07T03:41:08;5.20;99.90
24686;DHT22;12804;51.176;4.452;2024-03-07T03:43:33;5.30;99.90
24686;DHT22;12804;51.176;4.452;2024-03-07T03:45:59;5.30;99.90
24686;DHT22;12804;51.176;4.452;2024-03-07T03:48:28;5.20;99.90
24686;DHT22;12804;51.176;4.452;2024-03-07T03:50:53;5.20;99.90
24686;DHT22;12804;51.176;4.452;2024-03-07T03:53:19;5.10;99.90
24686;DHT22;12804;51.176;4.452;2024-03-07T03:55:45;5.10;99.90
24686;DHT22;12804;51.176;4.452;2024-03-07T03:58:11;5.10;99.90
24686;DHT22;12804;51.176;4.452;2024-03-07T04:00:37;5.20;99.90
24686;DHT22;12804;51.176;4.452;2024-03-07T04:03:04;5.10;99.90
24686;DHT22;12804;51.176;4.452;2024-03-07T04:05:30;5.20;99.90
24686;DHT22;12804;51.176;4.452;2024-03-07T04:07:57;5.20;99.90
24686;DHT22;12804;51.176;4.452;2024-03-07T04:10:24;5.10;99.90
24686;DHT22;12804;51.176;4.452;2024-03-07T04:12:50;5.10;99.90
24686;DHT22;12804;51.176;4.452;2024-03-07T04:15:16;5.10;99.90
24686;DHT22;12804;51.176;4.452;2024-03-07T04:17:42;5.20;99.90
24686;DHT22;12804;51.176;4.452;2024-03-07T04:20:10;5.20;99.90
24686;DHT22;12804;51.176;4.452;2024-03-07T04:22:37;5.20;99.90
24686;DHT22;12804;51.176;4.452;2024-03-07T04:25:05;5.10;99.90
24686;DHT22;12804;51.176;4.452;2024-03-07T04:27:33;5.10;99.90
24686;DHT22;12804;51.176;4.452;2024-03-07T04:30:00;5.10;99.90
24686;DHT22;12804;51.176;4.452;2024-03-07T04:32:29;5.10;99.90
24686;DHT22;12804;51.176;4.452;2024-03-07T04:34:55;5.00;99.90
24686;DHT22;12804;51.176;4.452;2024-03-07T04:37:23;5.00;99.90
24686;DHT22;12804;51.176;4.452;2024-03-07T04:39:49;5.10;99.90
24686;DHT22;12804;51.176;4.452;2024-03-07T04:42:15;5.00;99.90
24686;DHT22;12804;51.176;4.452;2024-03-07T04:44:41;5.00;99.90
24686;DHT22;12804;51.176;4.452;2024-03-07T04:47:07;5.00;99.90
24686;DHT22;12804;51.176;4.452;2024-03-07T04:49:33;4.90;99.90
24686;DHT22;12804;51.176;4.452;2024-03-07T04:52:00;4.90;99.90
24686;DHT22;12804;51.176;4.452;2024-03-07T04:54:28;4.80;99.90
24686;DHT22;12804;51.176;4.452;2024-03-07T04:56:55;4.80;99.90
24686;DHT22;12804;51.176;4.452;2024-03-07T04:59:21;4.80;99.90
24686;DHT22;12804;51.176;4.452;2024-03-07T05:01:49;4.80;99.90
24686;DHT22;12804;51.176;4.452;2024-03-07T05:04:18;4.80;99.90
24686;DHT22;12804;51.176;4.452;2024-03-07T05:06:45;4.80;99.90
24686;DHT22;12804;51.176;4.452;2024-03-07T05:09:13;4.70;99.90
24686;DHT22;12804;51.176;4.452;2024-03-07T05:11:49;4.80;99.90
24686;DHT22;12804;51.176;4.452;2024-03-07T05:14:17;4.70;99.90
24686;DHT22;12804;51.176;4.452;2024-03-07T05:16:44;4.80;99.90
24686;DHT22;12804;51.176;4.452;2024-03-07T05:19:10;4.80;99.90
24686;DHT22;12804;51.176;4.452;2024-03-07T05:21:36;4.80;99.90
24686;DHT22;12804;51.176;4.452;2024-03-07T05:24:08;4.90;99.90
24686;DHT22;12804;51.176;4.452;2024-03-07T05:26:37;4.90;99.90
24686;DHT22;12804;51.176;4.452;2024-03-07T05:29:10;5.00;99.90
24686;DHT22;12804;51.176;4.452;2024-03-07T05:31:38;5.10;99.90
24686;DHT22;12804;51.176;4.452;2024-03-07T05:34:04;5.00;99.90
24686;DHT22;12804;51.176;4.452;2024-03-07T05:36:37;4.90;99.90
24686;DHT22;12804;51.176;4.452;2024-03-07T05:39:10;5.00;99.90
24686;DHT22;12804;51.176;4.452;2024-03-07T05:41:40;5.00;99.90
24686;DHT22;12804;51.176;4.452;2024-03-07T05:44:06;5.00;99.90
24686;DHT22;12804;51.176;4.452;2024-03-07T05:46:39;5.00;99.90
24686;DHT22;12804;51.176;4.452;2024-03-07T05:49:14;5.10;99.90
24686;DHT22;12804;51.176;4.452;2024-03-07T05:51:42;5.10;99.90
24686;DHT22;12804;51.176;4.452;2024-03-07T05:54:09;5.20;99.90
24686;DHT22;12804;51.176;4.452;2024-03-07T05:56:35;5.30;99.90
24686;DHT22;12804;51.176;4.452;2024-03-07T05:59:05;5.50;99.90
24686;DHT22;12804;51.176;4.452;2024-03-07T06:01:33;5.50;99.90
24686;DHT22;12804;51.176;4.452;2024-03-07T06:04:04;5.60;99.90
24686;DHT22;12804;51.176;4.452;2024-03-07T06:06:32;5.60;99.90
24686;DHT22;12804;51.176;4.452;2024-03-07T06:09:08;5.50;99.90
24686;DHT22;12804;51.176;4.452;2024-03-07T06:11:35;5.50;99.90
24686;DHT22;12804;51.176;4.452;2024-03-07T06:14:05;5.60;99.90
24686;DHT22;12804;51.176;4.452;2024-03-07T06:16:33;5.70;99.90
24686;DHT22;12804;51.176;4.452;2024-03-07T06:19:03;5.60;99.90
24686;DHT22;12804;51.176;4.452;2024-03-07T06:21:29;5.50;99.90
24686;DHT22;12804;51.176;4.452;2024-03-07T06:24:02;5.50;99.90
24686;DHT22;12804;51.176;4.452;2024-03-07T06:26:30;5.50;99.90
24686;DHT22;12804;51.176;4.452;2024-03-07T06:29:15;5.70;99.90
24686;DHT22;12804;51.176;4.452;2024-03-07T06:31:45;5.70;99.90
24686;DHT22;12804;51.176;4.452;2024-03-07T06:34:14;5.80;99.90
24686;DHT22;12804;51.176;4.452;2024-03-07T06:36:40;5.90;99.90
24686;DHT22;12804;51.176;4.452;2024-03-07T06:39:06;6.00;99.90
24686;DHT22;12804;51.176;4.452;2024-03-07T06:41:35;6.60;99.90
24686;DHT22;12804;51.176;4.452;2024-03-07T06:44:02;6.50;99.90
24686;DHT22;12804;51.176;4.452;2024-03-07T06:46:28;6.50;99.90
24686;DHT22;12804;51.176;4.452;2024-03-07T06:48:55;6.40;99.90
24686;DHT22;12804;51.176;4.452;2024-03-07T06:51:24;6.40;99.90
24686;DHT22;12804;51.176;4.452;2024-03-07T06:53:50;6.30;99.90
24686;DHT22;12804;51.176;4.452;2024-03-07T06:56:17;6.30;99.90
24686;DHT22;12804;51.176;4.452;2024-03-07T06:58:43;6.30;99.90
24686;DHT22;12804;51.176;4.452;2024-03-07T07:01:12;6.50;99.90
24686;DHT22;12804;51.176;4.452;2024-03-07T07:03:41;6.40;99.90
24686;DHT22;12804;51.176;4.452;2024-03-07T07:06:10;6.60;99.90
24686;DHT22;12804;51.176;4.452;2024-03-07T07:08:36;6.30;99.90
24686;DHT22;12804;51.176;4.452;2024-03-07T07:11:02;6.10;99.90
24686;DHT22;12804;51.176;4.452;2024-03-07T07:13:30;5.80;99.90
24686;DHT22;12804;51.176;4.452;2024-03-07T07:15:56;5.80;99.90
24686;DHT22;12804;51.176;4.452;2024-03-07T07:18:22;5.80;99.90
24686;DHT22;12804;51.176;4.452;2024-03-07T07:20:49;5.90;99.90
24686;DHT22;12804;51.176;4.452;2024-03-07T07:23:18;6.10;99.90
24686;DHT22;12804;51.176;4.452;2024-03-07T07:25:44;6.20;99.90
24686;DHT22;12804;51.176;4.452;2024-03-07T07:28:10;6.40;99.90
24686;DHT22;12804;51.176;4.452;2024-03-07T07:30:37;7.20;99.90
24686;DHT22;12804;51.176;4.452;2024-03-07T07:33:03;6.90;99.90
24686;DHT22;12804;51.176;4.452;2024-03-07T07:35:29;7.10;99.90
24686;DHT22;12804;51.176;4.452;2024-03-07T07:37:54;7.00;99.90
24686;DHT22;12804;51.176;4.452;2024-03-07T07:40:22;6.90;99.90
24686;DHT22;12804;51.176;4.452;2024-03-07T07:42:50;6.70;99.90
24686;DHT22;12804;51.176;4.452;2024-03-07T07:45:18;6.80;99.90
24686;DHT22;12804;51.176;4.452;2024-03-07T07:47:47;6.90;99.90
24686;DHT22;12804;51.176;4.452;2024-03-07T07:50:16;7.00;99.90
24686;DHT22;12804;51.176;4.452;2024-03-07T07:52:48;7.00;99.90
24686;DHT22;12804;51.176;4.452;2024-03-07T07:55:17;7.00;99.90
24686;DHT22;12804;51.176;4.452;2024-03-07T07:57:48;7.00;99.90
24686;DHT22;12804;51.176;4.452;2024-03-07T08:00:16;6.70;99.90
24686;DHT22;12804;51.176;4.452;2024-03-07T08:02:53;6.80;99.90
24686;DHT22;12804;51.176;4.452;2024-03-07T08:05:21;6.90;99.90
24686;DHT22;12804;51.176;4.452;2024-03-07T08:07:52;7.10;99.90
24686;DHT22;12804;51.176;4.452;2024-03-07T08:10:19;7.30;99.90
24686;DHT22;12804;51.176;4.452;2024-03-07T08:12:46;7.30;99.90
24686;DHT22;12804;51.176;4.452;2024-03-07T08:15:13;7.30;99.90
24686;DHT22;12804;51.176;4.452;2024-03-07T08:17:43;7.30;99.90
24686;DHT22;12804;51.176;4.452;2024-03-07T08:20:15;7.40;99.90
24686;DHT22;12804;51.176;4.452;2024-03-07T08:22:42;7.30;99.90
24686;DHT22;12804;51.176;4.452;2024-03-07T08:25:15;7.30;99.90
24686;DHT22;12804;51.176;4.452;2024-03-07T08:27:44;7.20;99.90
24686;DHT22;12804;51.176;4.452;2024-03-07T08:30:12;7.40;99.90
24686;DHT22;12804;51.176;4.452;2024-03-07T08:32:41;7.60;99.90
24686;DHT22;12804;51.176;4.452;2024-03-07T08:35:08;7.50;99.90
24686;DHT22;12804;51.176;4.452;2024-03-07T08:37:43;7.50;99.90
24686;DHT22;12804;51.176;4.452;2024-03-07T08:40:13;7.50;99.90
24686;DHT22;12804;51.176;4.452;2024-03-07T08:42:52;7.50;99.90
24686;DHT22;12804;51.176;4.452;2024-03-07T08:45:19;7.30;99.90
24686;DHT22;12804;51.176;4.452;2024-03-07T08:47:46;7.30;99.90
24686;DHT22;12804;51.176;4.452;2024-03-07T08:50:13;7.40;99.90
24686;DHT22;12804;51.176;4.452;2024-03-07T08:52:39;7.50;99.90
24686;DHT22;12804;51.176;4.452;2024-03-07T08:55:06;7.50;99.90
24686;DHT22;12804;51.176;4.452;2024-03-07T08:57:40;7.30;99.90
24686;DHT22;12804;51.176;4.452;2024-03-07T09:00:06;7.40;99.90
24686;DHT22;12804;51.176;4.452;2024-03-07T09:02:38;7.50;99.90
24686;DHT22;12804;51.176;4.452;2024-03-07T09:05:05;7.80;99.90
24686;DHT22;12804;51.176;4.452;2024-03-07T09:07:31;7.90;99.90
24686;DHT22;12804;51.176;4.452;2024-03-07T09:09:58;7.90;97.40
24686;DHT22;12804;51.176;4.452;2024-03-07T09:12:24;7.90;95.10
24686;DHT22;12804;51.176;4.452;2024-03-07T09:14:53;7.90;97.70
24686;DHT22;12804;51.176;4.452;2024-03-07T09:17:20;7.80;97.80
24686;DHT22;12804;51.176;4.452;2024-03-07T09:19:46;7.90;99.90
24686;DHT22;12804;51.176;4.452;2024-03-07T09:22:12;8.10;91.20
24686;DHT22;12804;51.176;4.452;2024-03-07T09:24:37;8.00;56.50
24686;DHT22;12804;51.176;4.452;2024-03-07T09:27:03;8.10;51.70
24686;DHT22;12804;51.176;4.452;2024-03-07T09:29:30;8.30;43.40
24686;DHT22;12804;51.176;4.452;2024-03-07T09:31:56;8.40;26.50
24686;DHT22;12804;51.176;4.452;2024-03-07T09:34:24;8.40;28.80
24686;DHT22;12804;51.176;4.452;2024-03-07T09:36:53;8.30;24.30
24686;DHT22;12804;51.176;4.452;2024-03-07T09:39:19;8.50;25.30
24686;DHT22;12804;51.176;4.452;2024-03-07T09:41:45;8.50;19.70
24686;DHT22;12804;51.176;4.452;2024-03-07T09:44:15;8.60;1.00
24686;DHT22;12804;51.176;4.452;2024-03-07T09:46:50;8.70;1.00
24686;DHT22;12804;51.176;4.452;2024-03-07T09:49:17;9.00;1.00
24686;DHT22;12804;51.176;4.452;2024-03-07T09:51:44;9.00;1.00
24686;DHT22;12804;51.176;4.452;2024-03-07T09:54:10;9.00;1.00
24686;DHT22;12804;51.176;4.452;2024-03-07T09:56:41;9.10;1.00
24686;DHT22;12804;51.176;4.452;2024-03-07T09:59:11;9.20;1.00
24686;DHT22;12804;51.176;4.452;2024-03-07T10:01:39;9.40;1.00
24686;DHT22;12804;51.176;4.452;2024-03-07T10:04:10;9.50;1.00
24686;DHT22;12804;51.176;4.452;2024-03-07T10:06:42;9.60;1.00
24686;DHT22;12804;51.176;4.452;2024-03-07T10:09:11;9.40;1.00
24686;DHT22;12804;51.176;4.452;2024-03-07T10:11:40;9.50;1.00
24686;DHT22;12804;51.176;4.452;2024-03-07T10:14:09;9.70;1.00
24686;DHT22;12804;51.176;4.452;2024-03-07T10:16:36;9.90;1.00
24686;DHT22;12804;51.176;4.452;2024-03-07T10:19:05;10.00;1.00
24686;DHT22;12804;51.176;4.452;2024-03-07T10:21:33;10.20;1.00
24686;DHT22;12804;51.176;4.452;2024-03-07T10:24:06;10.30;1.00
24686;DHT22;12804;51.176;4.452;2024-03-07T10:26:37;10.10;1.00
24686;DHT22;12804;51.176;4.452;2024-03-07T10:29:07;10.30;1.00
24686;DHT22;12804;51.176;4.452;2024-03-07T10:31:36;10.60;1.00
24686;DHT22;12804;51.176;4.452;2024-03-07T10:34:04;10.90;1.00
24686;DHT22;12804;51.176;4.452;2024-03-07T10:36:31;11.20;1.00
24686;DHT22;12804;51.176;4.452;2024-03-07T10:39:01;11.80;99.90
24686;DHT22;12804;51.176;4.452;2024-03-07T10:41:48;11.80;1.00
24686;DHT22;12804;51.176;4.452;2024-03-07T10:44:24;11.50;46.60
24686;DHT22;12804;51.176;4.452;2024-03-07T10:47:00;11.60;7.50
24686;DHT22;12804;51.176;4.452;2024-03-07T10:49:33;12.00;1.00
24686;DHT22;12804;51.176;4.452;2024-03-07T10:57:51;13.30;99.90
24686;DHT22;12804;51.176;4.452;2024-03-07T11:00:27;13.90;1.00
24686;DHT22;12804;51.176;4.452;2024-03-07T11:02:57;14.10;99.90
24686;DHT22;12804;51.176;4.452;2024-03-07T11:05:26;13.80;1.00
24686;DHT22;12804;51.176;4.452;2024-03-07T11:08:04;13.60;99.90
24686;DHT22;12804;51.176;4.452;2024-03-07T11:10:37;13.50;99.90
24686;DHT22;12804;51.176;4.452;2024-03-07T11:13:09;13.60;99.90
24686;DHT22;12804;51.176;4.452;2024-03-07T11:15:41;13.40;1.00
24686;DHT22;12804;51.176;4.452;2024-03-07T11:18:08;12.40;99.90
24686;DHT22;12804;51.176;4.452;2024-03-07T11:20:37;12.20;1.00
24686;DHT22;12804;51.176;4.452;2024-03-07T11:23:31;12.40;1.00
24686;DHT22;12804;51.176;4.452;2024-03-07T11:26:04;13.10;99.90
24686;DHT22;12804;51.176;4.452;2024-03-07T11:34:12;13.00;1.00
24686;DHT22;12804;51.176;4.452;2024-03-07T11:36:48;12.60;99.90
24686;DHT22;12804;51.176;4.452;2024-03-07T11:42:28;12.20;1.00
24686;DHT22;12804;51.176;4.452;2024-03-07T11:44:59;12.70;1.00
24686;DHT22;12804;51.176;4.452;2024-03-07T11:47:26;13.70;11.20
24686;DHT22;12804;51.176;4.452;2024-03-07T11:49:56;13.70;1.00
24686;DHT22;12804;51.176;4.452;2024-03-07T11:52:26;13.50;1.00
24686;DHT22;12804;51.176;4.452;2024-03-07T11:54:53;13.30;1.00
24686;DHT22;12804;51.176;4.452;2024-03-07T11:57:19;13.20;1.00
24686;DHT22;12804;51.176;4.452;2024-03-07T11:59:47;12.90;1.00
24686;DHT22;12804;51.176;4.452;2024-03-07T12:02:18;12.50;1.00
24686;DHT22;12804;51.176;4.452;2024-03-07T12:04:49;12.50;99.90
24686;DHT22;12804;51.176;4.452;2024-03-07T12:07:16;12.80;18.20
24686;DHT22;12804;51.176;4.452;2024-03-07T12:09:48;13.80;1.00
24686;DHT22;12804;51.176;4.452;2024-03-07T12:12:22;13.70;99.90
24686;DHT22;12804;51.176;4.452;2024-03-07T12:14:49;13.20;1.00
24686;DHT22;12804;51.176;4.452;2024-03-07T12:17:18;12.50;1.00
24686;DHT22;12804;51.176;4.452;2024-03-07T12:19:44;12.40;1.00
24686;DHT22;12804;51.176;4.452;2024-03-07T12:22:12;12.50;1.00
24686;DHT22;12804;51.176;4.452;2024-03-07T12:24:42;13.00;99.90
24686;DHT22;12804;51.176;4.452;2024-03-07T12:27:12;13.20;1.00
24686;DHT22;12804;51.176;4.452;2024-03-07T12:29:39;12.80;1.00
24686;DHT22;12804;51.176;4.452;2024-03-07T12:32:06;12.90;99.90
24686;DHT22;12804;51.176;4.452;2024-03-07T12:34:43;13.30;1.00
24686;DHT22;12804;51.176;4.452;2024-03-07T12:37:12;12.90;1.00
24686;DHT22;12804;51.176;4.452;2024-03-07T12:39:45;13.20;1.00
24686;DHT22;12804;51.176;4.452;2024-03-07T12:42:24;12.80;1.00
24686;DHT22;12804;51.176;4.452;2024-03-07T12:44:50;13.30;99.90
24686;DHT22;12804;51.176;4.452;2024-03-07T12:47:17;13.20;1.00
24686;DHT22;12804;51.176;4.452;2024-03-07T12:49:43;13.50;34.50
24686;DHT22;12804;51.176;4.452;2024-03-07T12:52:10;13.80;1.00
24686;DHT22;12804;51.176;4.452;2024-03-07T12:54:39;14.00;1.00
24686;DHT22;12804;51.176;4.452;2024-03-07T12:57:08;14.50;1.00
24686;DHT22;12804;51.176;4.452;2024-03-07T12:59:35;14.60;51.60
24686;DHT22;12804;51.176;4.452;2024-03-07T13:02:09;14.70;1.00
24686;DHT22;12804;51.176;4.452;2024-03-07T13:04:36;14.00;99.90
24686;DHT22;12804;51.176;4.452;2024-03-07T13:07:06;14.00;1.00
24686;DHT22;12804;51.176;4.452;2024-03-07T13:09:35;14.00;36.70
24686;DHT22;12804;51.176;4.452;2024-03-07T13:12:01;13.60;1.00
24686;DHT22;12804;51.176;4.452;2024-03-07T13:14:32;13.70;1.00
24686;DHT22;12804;51.176;4.452;2024-03-07T13:17:01;14.00;99.90
24686;DHT22;12804;51.176;4.452;2024-03-07T13:19:28;13.90;1.00
24686;DHT22;12804;51.176;4.452;2024-03-07T13:21:56;13.60;1.00
24686;DHT22;12804;51.176;4.452;2024-03-07T13:24:23;13.30;99.90
24686;DHT22;12804;51.176;4.452;2024-03-07T13:26:49;13.00;1.00
24686;DHT22;12804;51.176;4.452;2024-03-07T13:29:16;13.20;90.90
24686;DHT22;12804;51.176;4.452;2024-03-07T13:31:44;13.20;1.00
24686;DHT22;12804;51.176;4.452;2024-03-07T13:34:11;13.30;1.00
24686;DHT22;12804;51.176;4.452;2024-03-07T13:36:42;13.30;99.90
24686;DHT22;12804;51.176;4.452;2024-03-07T13:39:09;13.60;1.00
24686;DHT22;12804;51.176;4.452;2024-03-07T13:41:43;14.00;53.20
24686;DHT22;12804;51.176;4.452;2024-03-07T13:44:10;14.20;1.00
24686;DHT22;12804;51.176;4.452;2024-03-07T13:46:36;14.50;99.90
24686;DHT22;12804;51.176;4.452;2024-03-07T13:49:03;14.30;99.90
24686;DHT22;12804;51.176;4.452;2024-03-07T13:51:42;15.10;1.00
24686;DHT22;12804;51.176;4.452;2024-03-07T13:54:21;16.20;99.90
24686;DHT22;12804;51.176;4.452;2024-03-07T14:11:52;17.80;1.00
24686;DHT22;12804;51.176;4.452;2024-03-07T14:17:59;17.80;99.90
24686;DHT22;12804;51.176;4.452;2024-03-07T14:23:39;17.40;99.90
24686;DHT22;12804;51.176;4.452;2024-03-07T14:29:05;18.80;99.90
24686;DHT22;12804;51.176;4.452;2024-03-07T14:31:40;18.60;99.90
24686;DHT22;12804;51.176;4.452;2024-03-07T14:36:45;19.40;99.70
24686;DHT22;12804;51.176;4.452;2024-03-07T14:39:13;18.70;99.90
24686;DHT22;12804;51.176;4.452;2024-03-07T14:41:57;19.50;95.80
24686;DHT22;12804;51.176;4.452;2024-03-07T14:44:24;18.50;99.90
24686;DHT22;12804;51.176;4.452;2024-03-07T14:47:04;19.60;63.40
24686;DHT22;12804;51.176;4.452;2024-03-07T14:49:34;19.00;65.90
24686;DHT22;12804;51.176;4.452;2024-03-07T14:52:01;19.90;51.50
24686;DHT22;12804;51.176;4.452;2024-03-07T14:54:28;19.50;9.40
24686;DHT22;12804;51.176;4.452;2024-03-07T14:56:54;19.60;8.20
24686;DHT22;12804;51.176;4.452;2024-03-07T14:59:20;19.60;1.00
24686;DHT22;12804;51.176;4.452;2024-03-07T15:01:47;20.00;1.00
24686;DHT22;12804;51.176;4.452;2024-03-07T15:04:13;20.70;1.00
24686;DHT22;12804;51.176;4.452;2024-03-07T15:06:42;21.20;1.00
24686;DHT22;12804;51.176;4.452;2024-03-07T15:09:09;20.60;1.00
24686;DHT22;12804;51.176;4.452;2024-03-07T15:11:37;20.00;1.00
24686;DHT22;12804;51.176;4.452;2024-03-07T15:14:06;19.60;1.00
24686;DHT22;12804;51.176;4.452;2024-03-07T15:16:37;18.40;1.00
24686;DHT22;12804;51.176;4.452;2024-03-07T15:19:07;16.90;1.00
24686;DHT22;12804;51.176;4.452;2024-03-07T15:21:34;15.60;23.50
24686;DHT22;12804;51.176;4.452;2024-03-07T15:24:00;15.10;99.90
24686;DHT22;12804;51.176;4.452;2024-03-07T15:26:27;14.40;1.00
24686;DHT22;12804;51.176;4.452;2024-03-07T15:28:53;14.00;99.90
24686;DHT22;12804;51.176;4.452;2024-03-07T15:31:23;13.50;99.90
24686;DHT22;12804;51.176;4.452;2024-03-07T15:33:50;13.10;1.00
24686;DHT22;12804;51.176;4.452;2024-03-07T15:36:20;13.10;1.00
24686;DHT22;12804;51.176;4.452;2024-03-07T15:38:48;13.10;1.00
24686;DHT22;12804;51.176;4.452;2024-03-07T15:41:14;12.80;1.00
24686;DHT22;12804;51.176;4.452;2024-03-07T15:43:42;12.80;1.00
24686;DHT22;12804;51.176;4.452;2024-03-07T15:46:13;12.80;1.00
24686;DHT22;12804;51.176;4.452;2024-03-07T15:48:44;12.70;99.90
24686;DHT22;12804;51.176;4.452;2024-03-07T15:51:10;12.40;99.90
24686;DHT22;12804;51.176;4.452;2024-03-07T15:53:37;12.30;1.00
24686;DHT22;12804;51.176;4.452;2024-03-07T15:56:04;12.10;1.00
24686;DHT22;12804;51.176;4.452;2024-03-07T15:58:32;12.10;99.90
24686;DHT22;12804;51.176;4.452;2024-03-07T16:00:58;12.00;99.90
24686;DHT22;12804;51.176;4.452;2024-03-07T16:03:24;11.90;99.90
24686;DHT22;12804;51.176;4.452;2024-03-07T16:05:51;12.00;99.90
24686;DHT22;12804;51.176;4.452;2024-03-07T16:08:20;12.20;1.00
24686;DHT22;12804;51.176;4.452;2024-03-07T16:10:46;12.10;1.00
24686;DHT22;12804;51.176;4.452;2024-03-07T16:13:13;12.20;1.00
24686;DHT22;12804;51.176;4.452;2024-03-07T16:15:44;12.10;1.00
24686;DHT22;12804;51.176;4.452;2024-03-07T16:18:12;11.90;99.90
24686;DHT22;12804;51.176;4.452;2024-03-07T16:20:40;11.90;1.00
24686;DHT22;12804;51.176;4.452;2024-03-07T16:23:06;11.80;99.90
24686;DHT22;12804;51.176;4.452;2024-03-07T16:25:33;11.90;99.90
24686;DHT22;12804;51.176;4.452;2024-03-07T16:28:00;11.60;99.90
24686;DHT22;12804;51.176;4.452;2024-03-07T16:30:27;11.60;99.90
24686;DHT22;12804;51.176;4.452;2024-03-07T16:32:57;11.60;1.00